createdAt,value
2023-02-06T00:01:24.575Z,30.25
2023-02-06T00:03:51.329Z,22.95
2023-02-06T00:06:18.384Z,22.80
2023-02-06T00:11:14.347Z,16.27
2023-02-06T00:13:41.032Z,15.77
2023-02-06T00:16:16.928Z,21.65
2023-02-06T00:18:43.763Z,23.73
2023-02-06T00:21:10.522Z,19.20
2023-02-06T00:23:37.338Z,23.13
2023-02-06T00:26:06.450Z,18.55
2023-02-06T00:28:33.373Z,17.13
2023-02-06T00:31:00.152Z,16.33
2023-02-06T00:33:26.902Z,17.75
2023-02-06T00:35:54.145Z,17.23
2023-02-06T00:38:20.820Z,25.10
2023-02-06T00:40:47.770Z,23.30
2023-02-06T00:43:14.462Z,15.70
2023-02-06T00:45:41.326Z,14.32
2023-02-06T00:48:09.427Z,18.20
2023-02-06T00:50:37.384Z,16.90
2023-02-06T00:53:04.118Z,19.42
2023-02-06T00:55:30.932Z,14.25
2023-02-06T00:57:57.624Z,12.45
2023-02-06T01:00:24.329Z,9.52
2023-02-06T01:02:51.297Z,18.70
2023-02-06T01:05:18.268Z,16.25
2023-02-06T01:07:45.050Z,19.25
2023-02-06T01:10:13.105Z,23.00
2023-02-06T01:12:40.673Z,15.15
2023-02-06T01:15:09.652Z,16.02
2023-02-06T01:17:38.169Z,23.85
2023-02-06T01:20:07.510Z,18.80
2023-02-06T01:22:36.670Z,22.13
2023-02-06T01:25:04.714Z,30.13
2023-02-06T01:27:33.390Z,23.23
2023-02-06T01:30:00.552Z,20.52
2023-02-06T01:32:28.074Z,21.90
2023-02-06T01:34:54.798Z,18.80
2023-02-06T01:37:21.796Z,24.27
2023-02-06T01:39:48.575Z,21.10
2023-02-06T01:42:16.167Z,16.80
2023-02-06T01:44:43.201Z,19.85
2023-02-06T01:47:11.096Z,21.80
2023-02-06T01:49:50.222Z,19.90
2023-02-06T01:52:24.473Z,21.75
2023-02-06T01:54:57.388Z,15.40
2023-02-06T01:57:30.385Z,21.25
2023-02-06T02:00:01.657Z,24.25
2023-02-06T02:02:43.038Z,24.85
2023-02-06T02:05:12.792Z,22.85
2023-02-06T02:08:07.161Z,21.50
2023-02-06T02:10:35.340Z,15.32
2023-02-06T02:13:02.153Z,19.63
2023-02-06T02:15:58.715Z,21.95
2023-02-06T02:18:49.789Z,13.65
2023-02-06T02:22:04.256Z,19.05
2023-02-06T02:24:52.914Z,22.50
2023-02-06T02:27:30.721Z,18.55
2023-02-06T02:30:31.536Z,19.13
2023-02-06T02:33:24.369Z,21.63
2023-02-06T02:36:37.098Z,14.88
2023-02-06T02:39:34.134Z,19.45
2023-02-06T02:42:39.885Z,13.13
2023-02-06T02:45:36.370Z,21.60
2023-02-06T02:48:12.857Z,17.45
2023-02-06T02:50:40.560Z,19.60
2023-02-06T02:53:08.673Z,19.65
2023-02-06T02:55:36.150Z,22.52
2023-02-06T02:58:07.968Z,18.75
2023-02-06T03:00:39.754Z,21.70
2023-02-06T03:03:11.094Z,21.17
2023-02-06T03:05:51.581Z,22.65
2023-02-06T03:08:22.584Z,20.15
2023-02-06T03:11:08.633Z,12.90
2023-02-06T03:14:15.606Z,16.65
2023-02-06T03:16:48.300Z,16.83
2023-02-06T03:19:29.768Z,9.45
2023-02-06T03:21:57.042Z,10.55
2023-02-06T03:24:27.128Z,5.95
2023-02-06T03:26:59.125Z,6.95
2023-02-06T03:29:30.666Z,12.75
2023-02-06T03:32:02.168Z,6.78
2023-02-06T03:34:29.064Z,11.00
2023-02-06T03:36:56.517Z,11.48
2023-02-06T03:39:23.745Z,9.82
2023-02-06T03:41:52.607Z,20.30
2023-02-06T03:44:24.929Z,22.05
2023-02-06T03:46:54.556Z,18.55
2023-02-06T03:49:26.278Z,14.90
2023-02-06T03:52:06.381Z,20.55
2023-02-06T03:54:36.183Z,17.63
2023-02-06T03:57:10.207Z,14.90
2023-02-06T03:59:37.316Z,10.77
2023-02-06T04:02:06.277Z,18.00
2023-02-06T04:04:39.924Z,7.22
2023-02-06T04:07:22.378Z,10.90
2023-02-06T04:09:49.608Z,15.52
2023-02-06T04:12:17.963Z,13.45
2023-02-06T04:14:45.272Z,21.25
2023-02-06T04:17:18.743Z,23.77
2023-02-06T04:19:51.022Z,14.27
2023-02-06T04:22:17.725Z,13.60
2023-02-06T04:24:44.710Z,14.95
2023-02-06T04:27:14.728Z,7.85
2023-02-06T04:29:41.539Z,20.90
2023-02-06T04:32:08.785Z,14.55
2023-02-06T04:34:36.764Z,8.40
2023-02-06T04:37:05.778Z,8.00
2023-02-06T04:39:33.727Z,14.38
2023-02-06T04:42:00.363Z,15.98
2023-02-06T04:44:27.318Z,19.73
2023-02-06T04:46:54.144Z,20.23
2023-02-06T04:49:21.291Z,18.38
2023-02-06T04:51:51.017Z,16.90
2023-02-06T04:54:18.437Z,22.67
2023-02-06T04:56:46.219Z,14.80
2023-02-06T04:59:13.043Z,14.82
2023-02-06T05:01:40.113Z,14.93
2023-02-06T05:04:08.397Z,17.30
2023-02-06T05:06:36.752Z,18.35
2023-02-06T05:09:06.641Z,13.27
2023-02-06T05:11:34.535Z,17.13
2023-02-06T05:14:01.633Z,16.95
2023-02-06T05:16:28.548Z,17.70
2023-02-06T05:18:56.901Z,18.05
2023-02-06T05:21:24.981Z,18.15
2023-02-06T05:23:52.193Z,15.25
2023-02-06T05:28:46.297Z,18.58
2023-02-06T05:31:19.797Z,19.73
2023-02-06T05:33:52.553Z,17.83
2023-02-06T05:36:20.847Z,19.60
2023-02-06T05:38:48.532Z,21.20
2023-02-06T05:41:17.357Z,13.23
2023-02-06T05:43:44.306Z,11.77
2023-02-06T05:46:13.667Z,18.65
2023-02-06T05:48:41.019Z,11.70
2023-02-06T05:51:08.112Z,12.38
2023-02-06T05:56:01.555Z,8.27
2023-02-06T05:58:28.437Z,12.05
2023-02-06T06:03:22.221Z,11.23
2023-02-06T06:08:16.442Z,10.48
2023-02-06T06:10:43.676Z,14.90
2023-02-06T06:15:40.389Z,21.65
2023-02-06T06:18:07.564Z,14.50
2023-02-06T06:20:34.752Z,5.95
2023-02-06T06:23:02.112Z,14.85
2023-02-06T06:25:29.679Z,7.20
2023-02-06T06:27:56.809Z,9.15
2023-02-06T06:30:24.165Z,11.07
2023-02-06T06:32:52.087Z,11.32
2023-02-06T06:35:19.068Z,18.17
2023-02-06T06:37:46.190Z,9.68
2023-02-06T06:40:13.105Z,25.33
2023-02-06T06:42:40.584Z,19.02
2023-02-06T06:45:10.726Z,18.38
2023-02-06T06:47:38.309Z,9.73
2023-02-06T06:50:06.753Z,13.65
2023-02-06T06:52:34.295Z,10.88
2023-02-06T06:55:01.898Z,17.33
2023-02-06T06:57:33.937Z,16.85
2023-02-06T07:00:02.841Z,12.57
2023-02-06T07:02:29.964Z,16.15
2023-02-06T07:04:56.940Z,19.08
2023-02-06T07:07:24.424Z,14.98
2023-02-06T07:09:51.479Z,25.67
2023-02-06T07:12:18.414Z,14.85
2023-02-06T07:14:49.267Z,19.83
2023-02-06T07:17:16.523Z,27.63
2023-02-06T07:22:15.932Z,16.70
2023-02-06T07:24:43.546Z,24.67
2023-02-06T07:27:10.862Z,20.58
2023-02-06T07:32:06.962Z,25.38
2023-02-06T07:34:35.204Z,13.60
2023-02-06T07:37:04.169Z,22.05
2023-02-06T07:39:32.084Z,26.15
2023-02-06T07:41:59.604Z,24.90
2023-02-06T07:44:32.840Z,26.52
2023-02-06T07:47:01.911Z,19.58
2023-02-06T07:49:28.876Z,14.85
2023-02-06T07:51:56.274Z,15.00
2023-02-06T07:54:23.571Z,13.88
2023-02-06T07:56:50.767Z,10.70
2023-02-06T07:59:18.567Z,6.90
2023-02-06T08:01:46.306Z,11.48
2023-02-06T08:04:18.818Z,17.55
2023-02-06T08:06:47.345Z,12.15
2023-02-06T08:09:19.104Z,15.95
2023-02-06T08:11:51.275Z,13.20
2023-02-06T08:14:20.065Z,17.15
2023-02-06T08:16:49.093Z,12.48
2023-02-06T08:19:17.006Z,12.32
2023-02-06T08:21:44.165Z,10.07
2023-02-06T08:24:14.118Z,15.65
2023-02-06T08:26:44.633Z,13.30
2023-02-06T08:29:14.951Z,17.30
2023-02-06T08:31:42.833Z,12.05
2023-02-06T08:34:12.821Z,16.30
2023-02-06T08:36:41.720Z,12.95
2023-02-06T08:39:18.717Z,13.27
2023-02-06T08:41:46.803Z,15.98
2023-02-06T08:44:16.397Z,10.50
2023-02-06T08:46:45.195Z,16.13
2023-02-06T08:49:16.200Z,16.55
2023-02-06T08:51:43.812Z,16.73
2023-02-06T08:54:19.773Z,15.70
2023-02-06T08:56:51.539Z,14.93
2023-02-06T08:59:22.349Z,9.15
2023-02-06T09:01:49.869Z,13.02
2023-02-06T09:04:19.372Z,10.70
2023-02-06T09:06:50.460Z,15.60
2023-02-06T09:09:18.774Z,11.70
2023-02-06T09:11:45.752Z,16.52
2023-02-06T09:14:17.775Z,21.17
2023-02-06T09:16:48.432Z,16.95
2023-02-06T09:19:16.224Z,15.32
2023-02-06T09:21:44.200Z,13.68
2023-02-06T09:24:12.140Z,13.18
2023-02-06T09:26:58.639Z,15.40
2023-02-06T09:29:29.368Z,10.35
2023-02-06T09:32:00.306Z,12.98
2023-02-06T09:34:27.757Z,14.88
2023-02-06T09:36:57.892Z,19.15
2023-02-06T09:39:27.850Z,13.93
2023-02-06T09:42:08.038Z,14.57
2023-02-06T09:44:39.769Z,8.52
2023-02-06T09:47:22.242Z,15.40
2023-02-06T09:50:07.962Z,20.30
2023-02-06T09:53:05.841Z,17.20
2023-02-06T09:55:41.491Z,16.25
2023-02-06T09:58:47.362Z,18.02
2023-02-06T10:01:38.757Z,20.50
2023-02-06T10:04:24.565Z,24.30
2023-02-06T10:07:00.197Z,14.98
2023-02-06T10:10:03.024Z,19.10
2023-02-06T10:12:42.912Z,31.15
2023-02-06T10:15:10.900Z,33.90
2023-02-06T10:17:50.858Z,36.03
2023-02-06T10:20:25.486Z,27.98
2023-02-06T10:23:37.913Z,31.08
2023-02-06T10:26:23.299Z,27.45
2023-02-06T10:28:59.626Z,29.85
2023-02-06T10:31:26.647Z,34.53
2023-02-06T10:33:53.617Z,28.27
2023-02-06T10:36:32.453Z,29.83
2023-02-06T10:39:18.397Z,25.67
2023-02-06T10:42:08.454Z,24.63
2023-02-06T10:44:53.022Z,27.55
2023-02-06T10:47:24.207Z,29.42
2023-02-06T10:50:01.411Z,26.67
2023-02-06T10:52:44.585Z,27.13
2023-02-06T10:55:21.441Z,20.88
2023-02-06T10:57:55.468Z,17.30
2023-02-06T11:00:28.024Z,18.52
2023-02-06T11:03:07.510Z,25.00
2023-02-06T11:05:37.007Z,17.42
2023-02-06T11:08:04.327Z,17.95
2023-02-06T11:13:15.903Z,15.65
2023-02-06T11:16:01.980Z,13.27
2023-02-06T11:18:34.850Z,15.88
2023-02-06T11:21:06.529Z,14.27
2023-02-06T11:23:35.467Z,14.02
2023-02-06T11:26:16.834Z,11.98
2023-02-06T11:28:58.357Z,18.25
2023-02-06T11:32:02.447Z,15.10
2023-02-06T11:35:04.450Z,8.95
2023-02-06T11:37:38.596Z,14.30
2023-02-06T11:40:18.244Z,14.27
2023-02-06T11:42:47.059Z,15.20
2023-02-06T11:45:23.103Z,18.98
2023-02-06T11:47:50.400Z,12.25
2023-02-06T11:50:34.278Z,16.60
2023-02-06T11:53:16.867Z,18.08
2023-02-06T11:55:45.841Z,14.05
2023-02-06T11:58:12.658Z,17.73
2023-02-06T12:03:57.131Z,14.48
2023-02-06T12:06:35.929Z,15.48
2023-02-06T12:09:12.727Z,17.40
2023-02-06T12:12:06.051Z,16.35
2023-02-06T12:14:42.373Z,17.48
2023-02-06T12:17:37.586Z,17.13
2023-02-06T12:20:21.530Z,19.38
2023-02-06T12:23:07.669Z,16.52
2023-02-06T12:25:38.294Z,17.25
2023-02-06T12:28:38.220Z,15.82
2023-02-06T12:31:16.320Z,12.32
2023-02-06T12:33:48.742Z,16.75
2023-02-06T12:36:34.454Z,10.40
2023-02-06T12:39:03.905Z,11.15
2023-02-06T12:41:47.958Z,7.03
2023-02-06T12:44:51.240Z,11.68
2023-02-06T12:47:39.782Z,12.80
2023-02-06T12:50:16.781Z,9.57
2023-02-06T12:53:20.488Z,9.95
2023-02-06T12:56:00.624Z,10.20
2023-02-06T12:58:50.637Z,10.85
2023-02-06T13:01:43.647Z,8.43
2023-02-06T13:04:19.752Z,9.57
2023-02-06T13:07:13.133Z,8.20
2023-02-06T13:10:06.183Z,9.07
2023-02-06T13:12:34.613Z,12.73
2023-02-06T13:15:08.186Z,8.88
2023-02-06T13:17:43.268Z,9.88
2023-02-06T13:20:11.713Z,8.02
2023-02-06T13:22:51.146Z,9.48
2023-02-06T13:25:30.058Z,10.63
2023-02-06T13:30:32.835Z,13.10
2023-02-06T13:33:15.876Z,9.98
2023-02-06T13:36:05.964Z,11.82
2023-02-06T13:38:33.506Z,12.77
2023-02-06T13:41:12.644Z,11.57
2023-02-06T13:43:42.750Z,8.93
2023-02-06T13:46:13.974Z,11.60
2023-02-06T13:49:16.643Z,11.68
2023-02-06T13:51:50.676Z,14.13
2023-02-06T13:54:54.532Z,12.63
2023-02-06T13:57:49.348Z,12.50
2023-02-06T14:00:21.568Z,9.70
2023-02-06T14:02:55.633Z,12.63
2023-02-06T14:05:54.405Z,15.02
2023-02-06T14:08:54.613Z,15.20
2023-02-06T14:11:32.318Z,12.05
2023-02-06T14:14:40.499Z,15.05
2023-02-06T14:17:38.288Z,18.45
2023-02-06T14:20:12.434Z,11.40
2023-02-06T14:23:31.621Z,14.90
2023-02-06T14:26:18.140Z,19.45
2023-02-06T14:29:09.421Z,21.17
2023-02-06T14:32:04.406Z,20.90
2023-02-06T14:34:52.400Z,15.63
2023-02-06T14:37:50.470Z,17.08
2023-02-06T14:40:27.428Z,14.77
2023-02-06T14:43:05.950Z,12.40
2023-02-06T14:45:42.942Z,14.00
2023-02-06T14:48:48.341Z,10.20
2023-02-06T14:51:25.192Z,10.18
2023-02-06T14:54:01.848Z,11.90
2023-02-06T14:56:39.774Z,10.18
2023-02-06T14:59:18.034Z,10.60
2023-02-06T15:01:48.737Z,12.13
2023-02-06T15:04:22.579Z,17.88
2023-02-06T15:07:04.885Z,12.35
2023-02-06T15:09:37.852Z,10.68
2023-02-06T15:12:19.173Z,13.18
2023-02-06T15:15:02.673Z,15.80
2023-02-06T15:17:31.467Z,15.68
2023-02-06T15:20:15.435Z,14.85
2023-02-06T15:22:42.724Z,17.15
2023-02-06T15:25:56.168Z,20.35
2023-02-06T15:28:30.413Z,17.95
2023-02-06T15:30:59.680Z,20.10
2023-02-06T15:33:30.724Z,18.95
2023-02-06T15:36:00.130Z,17.17
2023-02-06T15:38:33.114Z,19.55
2023-02-06T15:41:07.200Z,16.92
2023-02-06T15:43:36.295Z,23.60
2023-02-06T15:46:08.329Z,21.50
2023-02-06T15:48:58.048Z,21.98
2023-02-06T15:51:28.218Z,20.60
2023-02-06T15:54:20.083Z,22.63
2023-02-06T15:56:54.922Z,22.08
2023-02-06T15:59:25.811Z,21.13
2023-02-06T16:02:06.540Z,26.63
2023-02-06T16:04:37.924Z,20.83
2023-02-06T16:07:23.075Z,22.77
2023-02-06T16:09:58.414Z,24.63
2023-02-06T16:12:25.908Z,18.15
2023-02-06T16:15:02.102Z,24.95
2023-02-06T16:17:41.067Z,21.25
2023-02-06T16:20:34.019Z,23.02
2023-02-06T16:23:23.043Z,22.35
2023-02-06T16:26:22.835Z,25.15
2023-02-06T16:29:04.197Z,23.23
2023-02-06T16:31:44.754Z,21.80
2023-02-06T16:34:37.147Z,20.52
2023-02-06T16:37:11.490Z,22.05
2023-02-06T16:39:42.340Z,19.73
2023-02-06T16:42:15.021Z,19.80
2023-02-06T16:44:46.121Z,18.35
2023-02-06T16:47:17.050Z,23.33
2023-02-06T16:50:28.593Z,21.80
2023-02-06T16:53:34.567Z,22.38
2023-02-06T16:56:25.366Z,24.42
2023-02-06T16:58:53.071Z,24.65
2023-02-06T17:01:25.914Z,23.85
2023-02-06T17:03:54.456Z,23.77
2023-02-06T17:06:27.104Z,22.58
2023-02-06T17:09:01.285Z,27.08
2023-02-06T17:11:28.241Z,26.52
2023-02-06T17:13:55.207Z,25.25
2023-02-06T17:16:28.260Z,30.63
2023-02-06T17:18:55.769Z,39.17
2023-02-06T17:21:23.961Z,37.20
2023-02-06T17:23:52.641Z,35.97
2023-02-06T17:26:22.013Z,35.80
2023-02-06T17:32:31.873Z,29.27
2023-02-06T17:35:11.813Z,29.02
2023-02-06T17:37:55.133Z,34.47
2023-02-06T17:40:31.097Z,35.88
2023-02-06T17:42:59.825Z,39.25
2023-02-06T17:45:26.656Z,31.70
2023-02-06T17:47:54.274Z,35.78
2023-02-06T17:50:24.348Z,35.63
2023-02-06T17:52:56.180Z,25.40
2023-02-06T17:55:24.842Z,25.40
2023-02-06T17:57:52.289Z,27.75
2023-02-06T18:00:27.142Z,25.35
2023-02-06T18:02:56.210Z,27.98
2023-02-06T18:05:24.441Z,27.38
2023-02-06T18:07:52.340Z,24.50
2023-02-06T18:10:21.349Z,26.23
2023-02-06T18:12:49.102Z,33.55
2023-02-06T18:15:16.203Z,32.30
2023-02-06T18:17:43.799Z,29.75
2023-02-06T18:20:11.976Z,38.80
2023-02-06T18:22:41.355Z,32.58
2023-02-06T18:25:11.058Z,33.08
2023-02-06T18:27:39.678Z,30.65
2023-02-06T18:30:07.913Z,26.58
2023-02-06T18:32:37.947Z,32.67
2023-02-06T18:35:05.895Z,27.65
2023-02-06T18:37:33.238Z,27.42
2023-02-06T18:40:00.381Z,27.98
2023-02-06T18:42:45.754Z,34.42
2023-02-06T18:45:13.637Z,23.85
2023-02-06T18:47:42.510Z,26.98
2023-02-06T18:50:13.237Z,34.40
2023-02-06T18:52:40.471Z,29.13
2023-02-06T18:55:09.450Z,25.48
2023-02-06T18:57:36.823Z,33.33
2023-02-06T19:00:12.588Z,28.60
2023-02-06T19:06:47.851Z,25.17
2023-02-06T19:10:14.664Z,27.15
2023-02-06T19:13:12.872Z,24.67
2023-02-06T19:15:47.549Z,26.48
2023-02-06T19:18:16.295Z,28.33
2023-02-06T19:20:58.117Z,23.92
2023-02-06T19:23:31.280Z,27.90
2023-02-06T19:26:11.923Z,31.15
2023-02-06T19:28:41.249Z,29.17
2023-02-06T19:31:09.487Z,25.30
2023-02-06T19:33:42.993Z,25.65
2023-02-06T19:36:12.853Z,24.00
2023-02-06T19:38:44.904Z,26.20
2023-02-06T19:41:24.569Z,23.83
2023-02-06T19:44:05.143Z,21.10
2023-02-06T19:46:43.123Z,21.90
2023-02-06T19:49:12.847Z,25.35
2023-02-06T19:51:45.227Z,24.52
2023-02-06T19:54:12.966Z,26.27
2023-02-06T19:56:46.302Z,34.63
2023-02-06T19:59:23.535Z,34.83
2023-02-06T20:01:52.652Z,36.63
2023-02-06T20:04:31.890Z,36.15
2023-02-06T20:07:01.303Z,36.15
2023-02-06T20:09:29.270Z,31.75
2023-02-06T20:11:57.145Z,35.90
2023-02-06T20:14:25.113Z,31.70
2023-02-06T20:16:56.883Z,33.25
2023-02-06T20:19:27.876Z,32.03
2023-02-06T20:21:58.172Z,34.47
2023-02-06T20:24:30.189Z,33.22
2023-02-06T20:27:03.000Z,34.72
2023-02-06T20:29:40.215Z,48.63
2023-02-06T20:32:08.610Z,45.30
2023-02-06T20:34:36.554Z,40.40
2023-02-06T20:37:04.483Z,40.17
2023-02-06T20:39:32.051Z,52.05
2023-02-06T20:41:59.567Z,46.15
2023-02-06T20:44:27.357Z,39.00
2023-02-06T20:46:55.678Z,52.95
2023-02-06T20:49:28.835Z,40.97
2023-02-06T20:51:56.346Z,45.83
2023-02-06T20:54:25.015Z,45.45
2023-02-06T20:56:55.448Z,36.88
2023-02-06T20:59:23.044Z,47.05
2023-02-06T21:01:51.035Z,46.67
2023-02-06T21:04:23.814Z,38.28
2023-02-06T21:06:55.749Z,49.03
2023-02-06T21:09:27.930Z,58.03
2023-02-06T21:11:56.337Z,53.83
2023-02-06T21:14:23.298Z,58.50
2023-02-06T21:16:50.491Z,45.17
2023-02-06T21:19:20.795Z,53.40
2023-02-06T21:21:48.795Z,43.38
2023-02-06T21:24:17.234Z,51.47
2023-02-06T21:26:44.479Z,45.88
2023-02-06T21:29:12.869Z,45.65
2023-02-06T21:31:40.366Z,45.83
2023-02-06T21:34:13.378Z,54.65
2023-02-06T21:36:43.293Z,42.10
2023-02-06T21:39:15.997Z,49.55
2023-02-06T21:41:46.774Z,43.65
2023-02-06T21:44:16.281Z,43.67
2023-02-06T21:46:43.570Z,50.17
2023-02-06T21:49:11.829Z,40.60
2023-02-06T21:51:39.347Z,35.70
2023-02-06T21:54:06.422Z,35.17
2023-02-06T21:56:41.368Z,37.10
2023-02-06T21:59:10.911Z,36.22
2023-02-06T22:01:41.826Z,34.60
2023-02-06T22:04:17.589Z,36.35
2023-02-06T22:06:48.797Z,32.55
2023-02-06T22:09:18.418Z,39.90
2023-02-06T22:11:45.188Z,43.00
2023-02-06T22:14:15.336Z,34.25
2023-02-06T22:16:43.666Z,37.60
2023-02-06T22:19:11.139Z,36.30
2023-02-06T22:21:38.457Z,38.90
2023-02-06T22:24:08.514Z,38.25
2023-02-06T22:26:39.563Z,30.70
2023-02-06T22:29:08.721Z,51.60
2023-02-06T22:31:36.852Z,58.80
2023-02-06T22:34:12.460Z,36.33
2023-02-06T22:36:39.665Z,28.60
2023-02-06T22:41:44.472Z,29.23
2023-02-06T22:44:16.812Z,32.90
2023-02-06T22:46:46.902Z,36.92
2023-02-06T22:49:14.862Z,36.42
2023-02-06T22:51:42.932Z,33.22
2023-02-06T22:54:10.747Z,39.70
2023-02-06T22:56:39.688Z,38.13
2023-02-06T22:59:15.075Z,34.95
2023-02-06T23:01:43.552Z,24.73
2023-02-06T23:04:18.954Z,31.80
2023-02-06T23:06:46.766Z,33.50
2023-02-06T23:09:23.302Z,41.30
2023-02-06T23:11:56.419Z,40.38
2023-02-06T23:14:23.799Z,31.10
2023-02-06T23:16:51.178Z,40.10
2023-02-06T23:19:19.158Z,35.85
2023-02-06T23:21:48.177Z,40.38
2023-02-06T23:24:22.794Z,41.95
2023-02-06T23:26:53.955Z,43.80
2023-02-06T23:29:23.582Z,33.17
2023-02-06T23:31:51.541Z,39.58
2023-02-06T23:34:20.289Z,31.15
2023-02-06T23:36:47.567Z,35.90
2023-02-06T23:39:14.700Z,33.95
2023-02-06T23:41:42.165Z,35.53
2023-02-06T23:44:11.539Z,38.97
2023-02-06T23:46:40.751Z,37.40
2023-02-06T23:49:08.603Z,38.10
2023-02-06T23:51:38.386Z,52.33
2023-02-06T23:54:07.375Z,43.80
2023-02-06T23:56:34.863Z,52.05
2023-02-06T23:59:03.898Z,39.80
